Time;durP1;ratioP1;P1;durP2;ratioP2;P2;SDS_P1;SDS_P2;PMS_P1;PMS_P2;Temp;Humidity;BMP_temperature;BMP_pressure;BME280_temperature;BME280_humidity;BME280_pressure;Samples;Min_cycle;Max_cycle;Signal;HPM_P1;HPM_P2
2023/06/16 00:00:59;;;;;;;;;;;;;;;17.88;81.16;101118.00;4185462;28;20012;-64
2023/06/16 00:03:02;;;;;;;;;;;;;;;17.82;81.15;101114.22;4186080;28;19947;-64
2023/06/16 00:05:04;;;;;;;;;;;;;;;17.75;81.60;101108.78;4185627;28;20016;-63
2023/06/16 00:07:10;;;;;;;;;;;;;;;17.71;81.87;101103.97;4186405;28;20055;-63
2023/06/16 00:09:13;;;;;;;;;;;;;;;17.69;82.68;101108.81;4185044;28;20051;-63
2023/06/16 00:11:15;;;;;;;;;;;;;;;17.72;83.00;101105.66;4185836;28;20015;-63
2023/06/16 00:13:17;;;;;;;;;;;;;;;17.74;83.08;101109.88;4185978;28;20020;-63
2023/06/16 00:15:20;;;;;;;;;;;;;;;17.73;82.94;101100.00;4185437;28;20011;-64
2023/06/16 00:17:23;;;;;;;;;;;;;;;17.72;82.70;101097.47;4183983;28;20721;-63
2023/06/16 00:19:27;;;;;;;;;;;;;;;17.67;83.10;101095.38;4185539;28;20024;-63
2023/06/16 00:21:35;;;;;;;;;;;;;;;17.65;83.69;101095.59;4185725;28;20027;-64
2023/06/16 00:23:38;;;;;;;;;;;;;;;17.62;83.54;101098.75;4185685;28;20387;-61
2023/06/16 00:25:42;;;;;;;;;;;;;;;17.60;83.98;101094.56;4185519;28;20020;-62
2023/06/16 00:27:44;;;;;;;;;;;;;;;17.60;83.89;101089.09;4185691;28;20036;-63
2023/06/16 00:29:46;;;;;;;;;;;;;;;17.63;84.06;101086.78;4186093;28;20024;-63
2023/06/16 00:31:51;;;;;;;;;;;;;;;17.62;83.77;101087.84;4185415;28;20019;-63
2023/06/16 00:33:55;;;;;;;;;;;;;;;17.62;83.76;101084.28;4185470;28;19971;-63
2023/06/16 00:35:58;;;;;;;;;;;;;;;17.63;83.86;101080.47;4186105;28;20020;-64
2023/06/16 00:38:00;;;;;;;;;;;;;;;17.66;83.92;101080.03;4185922;28;20019;-63
2023/06/16 00:40:03;;;;;;;;;;;;;;;17.68;84.08;101079.81;4184627;28;20438;-63
2023/06/16 00:42:07;;;;;;;;;;;;;;;17.73;83.72;101075.41;4182904;28;20050;-63
2023/06/16 00:44:09;;;;;;;;;;;;;;;17.78;83.93;101069.28;4188472;28;19925;-62
2023/06/16 00:46:11;;;;;;;;;;;;;;;17.83;83.66;101077.66;4188101;28;20011;-64
2023/06/16 00:48:14;;;;;;;;;;;;;;;17.87;83.36;101078.06;4188739;28;20023;-63
2023/06/16 00:50:18;;;;;;;;;;;;;;;17.89;83.21;101081.47;4188229;28;20369;-64
2023/06/16 00:52:20;;;;;;;;;;;;;;;17.89;83.13;101079.56;4188512;28;20310;-63
2023/06/16 00:54:22;;;;;;;;;;;;;;;17.90;82.75;101081.25;4187221;28;20020;-63
2023/06/16 00:56:24;;;;;;;;;;;;;;;17.91;82.91;101079.34;4188854;28;20027;-63
2023/06/16 00:58:28;;;;;;;;;;;;;;;17.92;82.77;101079.13;4188976;28;20032;-63
2023/06/16 01:00:32;;;;;;;;;;;;;;;17.92;82.73;101073.66;4188382;28;20023;-63
2023/06/16 01:02:34;;;;;;;;;;;;;;;17.93;82.56;101069.88;4188660;28;20015;-64
2023/06/16 01:04:36;;;;;;;;;;;;;;;17.96;82.72;101074.06;4188241;28;20456;-64
2023/06/16 01:06:41;;;;;;;;;;;;;;;17.98;82.47;101069.22;4187878;28;20034;-64
2023/06/16 01:08:44;;;;;;;;;;;;;;;18.00;82.26;101067.94;4187907;28;20031;-63
2023/06/16 01:10:48;;;;;;;;;;;;;;;18.04;82.41;101068.34;4187602;28;20015;-63
2023/06/16 01:12:51;;;;;;;;;;;;;;;18.00;81.81;101067.09;4187599;28;20019;-64
2023/06/16 01:15:00;;;;;;;;;;;;;;;17.96;82.10;101064.00;4187542;28;20027;-63
2023/06/16 01:17:02;;;;;;;;;;;;;;;17.94;82.04;101066.06;4187861;28;20332;-63
2023/06/16 01:19:07;;;;;;;;;;;;;;;17.95;82.26;101067.75;4187641;28;20027;-63
2023/06/16 01:21:10;;;;;;;;;;;;;;;17.96;82.67;101061.25;4188549;28;20020;-63
2023/06/16 01:23:16;;;;;;;;;;;;;;;17.98;82.68;101061.88;4220382;28;20026;-63
2023/06/16 01:25:22;;;;;;;;;;;;;;;17.99;82.56;101057.22;4202804;28;20031;-64
2023/06/16 01:27:24;;;;;;;;;;;;;;;17.98;82.47;101056.41;4195031;28;20027;-64
2023/06/16 01:29:26;;;;;;;;;;;;;;;17.94;82.71;101052.41;4186127;28;20016;-63
2023/06/16 01:31:29;;;;;;;;;;;;;;;17.90;82.71;101051.19;4188511;28;20011;-64
2023/06/16 01:33:32;;;;;;;;;;;;;;;17.88;83.04;101052.44;4188523;28;20015;-63
2023/06/16 01:35:37;;;;;;;;;;;;;;;17.89;83.10;101054.97;4186466;28;20023;-63
2023/06/16 01:37:39;;;;;;;;;;;;;;;17.93;82.88;101049.91;4168648;28;20031;-63
2023/06/16 01:39:41;;;;;;;;;;;;;;;17.93;82.58;101049.91;4219705;28;20015;-63
2023/06/16 01:41:44;;;;;;;;;;;;;;;17.92;82.38;101040.88;4187324;28;20060;-63
2023/06/16 01:43:49;;;;;;;;;;;;;;;17.89;82.49;101049.50;4185789;28;20382;-63
2023/06/16 01:45:52;;;;;;;;;;;;;;;17.90;82.54;101047.59;4184521;28;20624;-63
2023/06/16 01:47:54;;;;;;;;;;;;;;;17.89;82.23;101052.25;4219486;28;20011;-63
2023/06/16 01:49:56;;;;;;;;;;;;;;;17.90;82.50;101055.78;4187149;28;20377;-63
2023/06/16 01:51:59;;;;;;;;;;;;;;;17.91;82.13;101049.28;4187716;28;20023;-64
2023/06/16 01:54:01;;;;;;;;;;;;;;;17.89;81.78;101052.25;4183773;28;20114;-63
2023/06/16 01:56:03;;;;;;;;;;;;;;;17.83;81.47;101048.44;4187475;28;20015;-63
2023/06/16 01:58:07;;;;;;;;;;;;;;;17.81;81.41;101045.09;4186900;28;20030;-63
2023/06/16 02:00:13;;;;;;;;;;;;;;;17.79;81.58;101049.94;4187816;28;20023;-62
2023/06/16 02:02:19;;;;;;;;;;;;;;;17.79;81.29;101044.47;4187836;28;20475;-63
2023/06/16 02:04:22;;;;;;;;;;;;;;;17.80;81.24;101048.03;4186525;28;20360;-63
2023/06/16 02:06:27;;;;;;;;;;;;;;;17.79;81.24;101043.63;4220374;28;20351;-63
2023/06/16 02:08:31;;;;;;;;;;;;;;;17.77;81.44;101046.59;4166658;28;20016;-64
2023/06/16 02:10:33;;;;;;;;;;;;;;;17.79;81.49;101049.94;4201435;28;20019;-65
2023/06/16 02:12:35;;;;;;;;;;;;;;;17.79;80.74;101047.22;4188043;28;20020;-65
2023/06/16 02:14:39;;;;;;;;;;;;;;;17.75;80.66;101043.22;4186078;28;20052;-64
2023/06/16 02:16:42;;;;;;;;;;;;;;;17.73;80.50;101039.88;4187654;28;20026;-63
2023/06/16 02:18:44;;;;;;;;;;;;;;;17.73;80.64;101039.06;4186490;28;20019;-63
2023/06/16 02:20:46;;;;;;;;;;;;;;;17.70;80.75;101045.78;4219654;28;20039;-63
2023/06/16 02:22:49;;;;;;;;;;;;;;;17.71;81.15;101041.16;4186218;28;20023;-63
2023/06/16 02:24:51;;;;;;;;;;;;;;;17.67;80.91;101031.72;4218689;28;20375;-61
2023/06/16 02:26:54;;;;;;;;;;;;;;;17.66;80.89;101033.59;4186655;28;20359;-64
2023/06/16 02:28:56;;;;;;;;;;;;;;;17.68;80.77;101033.38;4187020;28;20366;-63
2023/06/16 02:31:00;;;;;;;;;;;;;;;17.67;80.14;101034.47;4186625;28;20014;-62
2023/06/16 02:33:02;;;;;;;;;;;;;;;17.66;79.37;101036.34;4187546;28;20019;-65
2023/06/16 02:35:05;;;;;;;;;;;;;;;17.64;78.86;101033.81;4186793;28;20019;-64
2023/06/16 02:37:11;;;;;;;;;;;;;;;17.62;78.96;101027.75;4187191;28;20308;-63
2023/06/16 02:39:14;;;;;;;;;;;;;;;17.61;79.27;101031.53;4186709;28;20043;-63
2023/06/16 02:41:16;;;;;;;;;;;;;;;17.60;79.17;101029.00;4200976;28;20019;-65
2023/06/16 02:43:20;;;;;;;;;;;;;;;17.57;79.10;101023.97;4184259;28;19960;-63
2023/06/16 02:45:22;;;;;;;;;;;;;;;17.57;79.05;101029.44;4185452;28;19999;-63
2023/06/16 02:47:26;;;;;;;;;;;;;;;17.56;79.26;101023.16;4186143;28;19933;-63
2023/06/16 02:49:28;;;;;;;;;;;;;;;17.57;79.42;101022.09;4186311;28;20027;-63
2023/06/16 02:51:33;;;;;;;;;;;;;;;17.58;78.96;101023.75;4219022;28;20388;-63
2023/06/16 02:53:36;;;;;;;;;;;;;;;17.61;78.62;101026.06;4185150;28;20015;-63
2023/06/16 02:55:39;;;;;;;;;;;;;;;17.60;78.04;101023.53;4169470;28;20024;-63
2023/06/16 02:57:41;;;;;;;;;;;;;;;17.59;77.42;101016.44;4185755;28;20369;-63
2023/06/16 02:59:44;;;;;;;;;;;;;;;17.58;76.93;101026.50;4186694;28;20016;-63
2023/06/16 03:01:46;;;;;;;;;;;;;;;17.59;76.95;101020.00;4186114;28;20541;-64
2023/06/16 03:04:10;;;;;;;;;;;;;;;17.56;76.28;101022.31;4185890;28;20043;-64
2023/06/16 03:06:34;;;;;;;;;;;;;;;17.52;76.34;101013.72;4186024;28;20086;-64
2023/06/16 03:08:36;;;;;;;;;;;;;;;17.48;76.04;101018.78;4185890;28;20466;-64
2023/06/16 03:10:39;;;;;;;;;;;;;;;17.48;76.34;101017.94;4218382;28;20433;-64
2023/06/16 03:12:44;;;;;;;;;;;;;;;17.48;76.98;101012.47;4184771;28;20058;-64
2023/06/16 03:14:46;;;;;;;;;;;;;;;17.50;77.17;101013.09;4217934;28;20019;-64
2023/06/16 03:16:55;;;;;;;;;;;;;;;17.51;77.59;101013.91;4184263;28;20016;-66
2023/06/16 03:18:59;;;;;;;;;;;;;;;17.51;77.86;101016.66;4200828;28;20019;-64
2023/06/16 03:21:03;;;;;;;;;;;;;;;17.51;78.16;101014.78;4202102;28;20011;-64
2023/06/16 03:23:11;;;;;;;;;;;;;;;17.53;78.13;101015.38;4185410;28;20020;-64
2023/06/16 03:25:15;;;;;;;;;;;;;;;17.52;78.82;101010.97;4184233;28;20015;-64
2023/06/16 03:27:21;;;;;;;;;;;;;;;17.50;79.38;101012.25;4201394;28;20565;-64
2023/06/16 03:29:36;;;;;;;;;;;;;;;17.47;79.79;101013.53;4184743;28;19977;-64
2023/06/16 03:31:39;;;;;;;;;;;;;;;17.45;80.28;101013.75;4185601;28;20027;-64
2023/06/16 03:33:44;;;;;;;;;;;;;;;17.46;80.83;101015.44;4185549;28;20012;-64
2023/06/16 03:35:49;;;;;;;;;;;;;;;17.44;81.32;101013.97;4201573;28;20023;-65
2023/06/16 03:38:04;;;;;;;;;;;;;;;17.43;81.18;101021.31;4216789;28;20014;-64
2023/06/16 03:40:07;;;;;;;;;;;;;;;17.42;81.04;101011.44;4201285;28;20372;-65
2023/06/16 03:42:12;;;;;;;;;;;;;;;17.42;80.26;101016.06;4201050;28;20018;-64
2023/06/16 03:44:17;;;;;;;;;;;;;;;17.42;79.40;101014.16;4217546;28;20015;-65
2023/06/16 03:46:19;;;;;;;;;;;;;;;17.42;78.88;101011.44;4169264;28;20023;-64
2023/06/16 03:48:21;;;;;;;;;;;;;;;17.46;78.77;101017.28;4186731;28;20062;-64
2023/06/16 03:50:29;;;;;;;;;;;;;;;17.47;78.27;101019.00;4185282;28;20310;-64
2023/06/16 03:52:32;;;;;;;;;;;;;;;17.46;78.63;101012.69;4217846;28;20438;-62
2023/06/16 03:54:36;;;;;;;;;;;;;;;17.47;78.44;101016.25;4184278;28;20388;-63
2023/06/16 03:56:39;;;;;;;;;;;;;;;17.47;78.56;101019.81;4185696;28;20394;-63
2023/06/16 03:58:43;;;;;;;;;;;;;;;17.47;78.53;101016.25;4218259;28;20372;-61
2023/06/16 04:00:45;;;;;;;;;;;;;;;17.47;78.47;101019.81;4185414;28;20028;-63
2023/06/16 04:02:50;;;;;;;;;;;;;;;17.47;78.76;101016.25;4200405;28;20022;-63
2023/06/16 04:05:00;;;;;;;;;;;;;;;17.47;78.50;101021.72;4184661;28;20013;-63
2023/06/16 04:07:03;;;;;;;;;;;;;;;17.47;78.60;101021.72;4184078;28;20044;-64
2023/06/16 04:09:08;;;;;;;;;;;;;;;17.47;78.70;101021.72;4183813;28;20023;-64
2023/06/16 04:11:11;;;;;;;;;;;;;;;17.48;78.71;101020.66;4200778;28;20466;-63
2023/06/16 04:13:13;;;;;;;;;;;;;;;17.48;78.50;101020.66;4185969;28;20004;-63
2023/06/16 04:15:18;;;;;;;;;;;;;;;17.45;78.51;101021.94;4184989;28;20047;-64
2023/06/16 04:17:20;;;;;;;;;;;;;;;17.45;78.59;101024.66;4201803;28;20018;-64
2023/06/16 04:19:22;;;;;;;;;;;;;;;17.46;78.50;101031.81;4177169;28;20011;-63
2023/06/16 04:21:27;;;;;;;;;;;;;;;17.48;78.84;101026.13;4187500;28;20079;-64
2023/06/16 04:23:32;;;;;;;;;;;;;;;17.48;78.44;101021.50;4204764;28;20374;-64
2023/06/16 04:25:38;;;;;;;;;;;;;;;17.50;78.16;101028.66;4188480;28;20036;-63
2023/06/16 04:27:41;;;;;;;;;;;;;;;17.48;78.05;101026.13;4189196;28;20023;-63
2023/06/16 04:29:46;;;;;;;;;;;;;;;17.47;78.10;101025.28;4204595;28;20011;-63
2023/06/16 04:31:50;;;;;;;;;;;;;;;17.47;78.20;101027.19;4189321;28;20441;-63
2023/06/16 04:33:53;;;;;;;;;;;;;;;17.48;78.34;101021.50;4187575;28;20076;-64
2023/06/16 04:35:55;;;;;;;;;;;;;;;17.49;78.17;101033.25;4188988;28;19960;-65
2023/06/16 04:37:58;;;;;;;;;;;;;;;17.50;78.02;101025.91;4187439;28;20019;-65
2023/06/16 04:40:00;;;;;;;;;;;;;;;17.50;77.69;101024.00;4187728;28;20096;-64
2023/06/16 04:42:04;;;;;;;;;;;;;;;17.50;77.69;101026.75;4188292;28;20007;-63
2023/06/16 04:44:08;;;;;;;;;;;;;;;17.52;77.40;101019.16;4220654;28;20030;-63
2023/06/16 04:46:10;;;;;;;;;;;;;;;17.55;77.33;101016.00;4185295;28;20031;-63
2023/06/16 04:48:13;;;;;;;;;;;;;;;17.57;77.50;101023.97;4220441;28;20031;-63
2023/06/16 04:50:16;;;;;;;;;;;;;;;17.58;77.75;101014.75;4186897;28;20016;-65
2023/06/16 04:52:18;;;;;;;;;;;;;;;17.60;77.68;101013.47;4187338;28;20019;-64
2023/06/16 04:54:20;;;;;;;;;;;;;;;17.60;77.46;101016.22;4170493;28;20019;-64
2023/06/16 04:56:22;;;;;;;;;;;;;;;17.60;77.53;101010.75;4171784;28;19936;-64
2023/06/16 04:58:24;;;;;;;;;;;;;;;17.63;77.43;101009.47;4167817;28;20097;-64
2023/06/16 05:00:30;;;;;;;;;;;;;;;17.62;77.45;101019.56;4170751;28;20017;-65
2023/06/16 05:02:32;;;;;;;;;;;;;;;17.63;77.47;101013.03;4189199;28;20471;-64
2023/06/16 05:04:37;;;;;;;;;;;;;;;17.64;77.24;101013.88;4216429;27;20019;-64
2023/06/16 05:06:39;;;;;;;;;;;;;;;17.65;77.30;101010.09;4181444;28;20369;-62
2023/06/16 05:08:41;;;;;;;;;;;;;;;17.67;76.91;101005.25;4197869;28;20449;-64
2023/06/16 05:10:44;;;;;;;;;;;;;;;17.69;76.74;101005.84;4203341;28;20020;-66
2023/06/16 05:12:46;;;;;;;;;;;;;;;17.70;76.79;101009.44;4170828;28;19971;-65
2023/06/16 05:14:48;;;;;;;;;;;;;;;17.70;76.83;101006.72;4183432;28;20044;-64
2023/06/16 05:16:53;;;;;;;;;;;;;;;17.70;76.83;101009.44;4202900;28;19935;-65
2023/06/16 05:18:55;;;;;;;;;;;;;;;17.71;77.02;101006.50;4186282;28;20015;-65
2023/06/16 05:20:58;;;;;;;;;;;;;;;17.71;76.96;101006.50;4172586;28;20031;-63
2023/06/16 05:23:03;;;;;;;;;;;;;;;17.72;77.14;101004.59;4188136;28;20051;-64
2023/06/16 05:25:06;;;;;;;;;;;;;;;17.74;77.12;101006.06;4187504;28;20003;-66
2023/06/16 05:27:08;;;;;;;;;;;;;;;17.76;77.12;101000.38;4201887;28;20019;-64
2023/06/16 05:29:10;;;;;;;;;;;;;;;17.77;77.19;101004.78;4185711;28;20457;-65
2023/06/16 05:31:13;;;;;;;;;;;;;;;17.77;77.00;101008.38;4187669;28;20046;-65
2023/06/16 05:33:17;;;;;;;;;;;;;;;17.77;76.81;101004.78;4184242;28;20024;-65
2023/06/16 05:35:19;;;;;;;;;;;;;;;17.77;76.94;101010.22;4185637;28;20020;-65
2023/06/16 05:37:22;;;;;;;;;;;;;;;17.75;77.06;101010.44;4187276;28;19970;-65
2023/06/16 05:39:26;;;;;;;;;;;;;;;17.73;76.98;101007.09;4186871;28;20019;-65
2023/06/16 05:41:28;;;;;;;;;;;;;;;17.72;77.10;101008.16;4186220;28;20036;-65
2023/06/16 05:43:32;;;;;;;;;;;;;;;17.71;76.71;101011.97;4202857;28;20016;-66
2023/06/16 05:45:34;;;;;;;;;;;;;;;17.72;76.89;101010.06;4183796;28;20024;-66
2023/06/16 05:47:36;;;;;;;;;;;;;;;17.73;76.77;101011.75;4187748;28;20007;-66
2023/06/16 05:49:40;;;;;;;;;;;;;;;17.76;76.74;101008.59;4185393;28;20003;-65
2023/06/16 05:51:42;;;;;;;;;;;;;;;17.76;76.86;101014.03;4202396;28;19970;-66
2023/06/16 05:53:44;;;;;;;;;;;;;;;17.76;76.56;101014.03;4170642;28;20086;-65
2023/06/16 05:55:46;;;;;;;;;;;;;;;17.78;76.49;101017.38;4187925;28;20019;-65
2023/06/16 05:57:48;;;;;;;;;;;;;;;17.77;76.27;101011.09;4185072;28;19925;-66
2023/06/16 05:59:51;;;;;;;;;;;;;;;17.75;76.37;101010.44;4185740;28;20004;-65
2023/06/16 06:01:54;;;;;;;;;;;;;;;17.74;76.63;101011.53;4218841;28;20366;-66
2023/06/16 06:03:57;;;;;;;;;;;;;;;17.74;77.01;101013.41;4185221;28;20023;-66
2023/06/16 06:06:01;;;;;;;;;;;;;;;17.73;77.18;101011.75;4185715;28;20632;-63
2023/06/16 06:08:03;;;;;;;;;;;;;;;17.73;77.28;101009.00;4171181;28;20020;-65
2023/06/16 06:10:06;;;;;;;;;;;;;;;17.72;77.41;101016.34;4201384;28;20015;-63
2023/06/16 06:12:10;;;;;;;;;;;;;;;17.72;77.25;101015.53;4185923;28;20011;-66
2023/06/16 06:14:13;;;;;;;;;;;;;;;17.74;77.58;101007.94;4193206;28;20046;-65
2023/06/16 06:16:15;;;;;;;;;;;;;;;17.75;77.12;101013.19;4187114;28;20019;-65
2023/06/16 06:18:19;;;;;;;;;;;;;;;17.76;77.28;101016.78;4185799;28;19952;-65
2023/06/16 06:20:22;;;;;;;;;;;;;;;17.77;77.29;101015.69;4185035;28;20524;-66
2023/06/16 06:22:31;;;;;;;;;;;;;;;17.75;77.34;101015.91;4185671;28;20019;-65
2023/06/16 06:24:34;;;;;;;;;;;;;;;17.77;77.21;101016.56;4219347;27;20540;-66
2023/06/16 06:26:38;;;;;;;;;;;;;;;17.79;77.38;101019.03;4185989;28;20031;-64
2023/06/16 06:28:40;;;;;;;;;;;;;;;17.81;77.35;101023.25;4186880;28;20027;-65
2023/06/16 06:30:43;;;;;;;;;;;;;;;17.81;77.35;101019.69;4185065;28;20039;-65
2023/06/16 06:32:45;;;;;;;;;;;;;;;17.82;77.50;101021.34;4186503;28;20024;-65
2023/06/16 06:34:49;;;;;;;;;;;;;;;17.81;77.52;101022.41;4186590;28;20019;-63
2023/06/16 06:36:51;;;;;;;;;;;;;;;17.81;77.24;101027.88;4219553;28;20429;-64
2023/06/16 06:38:55;;;;;;;;;;;;;;;17.80;76.98;101028.94;4185538;28;19925;-65
2023/06/16 06:40:58;;;;;;;;;;;;;;;17.81;76.85;101028.72;4181874;28;20045;-65
2023/06/16 06:43:01;;;;;;;;;;;;;;;17.83;76.88;101033.94;4219608;27;20039;-63
2023/06/16 06:45:20;;;;;;;;;;;;;;;17.82;76.62;101033.13;4202340;28;20016;-65
2023/06/16 06:47:22;;;;;;;;;;;;;;;17.82;76.17;101037.72;4184275;28;20056;-64
2023/06/16 06:49:28;;;;;;;;;;;;;;;17.82;76.49;101043.19;4179631;28;20701;-65
2023/06/16 06:51:30;;;;;;;;;;;;;;;17.82;76.47;101040.47;4184359;28;20059;-64
2023/06/16 06:53:32;;;;;;;;;;;;;;;17.82;76.58;101040.47;4185162;28;20045;-65
2023/06/16 06:55:36;;;;;;;;;;;;;;;17.83;76.72;101040.25;4185126;28;20007;-65
2023/06/16 06:57:38;;;;;;;;;;;;;;;17.87;77.06;101037.94;4185678;28;20015;-64
2023/06/16 06:59:41;;;;;;;;;;;;;;;17.90;77.42;101043.00;4185519;28;20361;-65
2023/06/16 07:01:43;;;;;;;;;;;;;;;17.91;76.84;101041.09;4185937;28;20016;-65
2023/06/16 07:03:45;;;;;;;;;;;;;;;17.90;76.34;101048.47;4186415;28;20018;-65
2023/06/16 07:05:47;;;;;;;;;;;;;;;17.90;76.31;101048.47;4186852;28;20055;-65
2023/06/16 07:07:49;;;;;;;;;;;;;;;17.89;76.38;101040.47;4185494;28;20016;-65
2023/06/16 07:09:51;;;;;;;;;;;;;;;17.88;76.35;101044.22;4185970;28;20027;-65
2023/06/16 07:11:54;;;;;;;;;;;;;;;17.86;76.49;101052.63;4186738;28;20035;-65
2023/06/16 07:13:56;;;;;;;;;;;;;;;17.87;76.46;101050.75;4186486;28;20494;-66
2023/06/16 07:15:58;;;;;;;;;;;;;;;17.87;76.49;101042.53;4185557;28;20013;-65
2023/06/16 07:18:00;;;;;;;;;;;;;;;17.88;76.92;101047.81;4185921;28;20020;-64
2023/06/16 07:20:04;;;;;;;;;;;;;;;17.91;76.52;101050.13;4186151;28;19932;-65
2023/06/16 07:22:06;;;;;;;;;;;;;;;17.92;76.48;101049.06;4186093;28;20020;-65
2023/06/16 07:24:08;;;;;;;;;;;;;;;17.95;76.73;101056.00;4185111;28;20051;-65
2023/06/16 07:26:10;;;;;;;;;;;;;;;17.94;76.56;101063.34;4186464;28;20023;-65
2023/06/16 07:28:14;;;;;;;;;;;;;;;17.94;76.69;101057.88;4186258;28;20035;-64
2023/06/16 07:30:16;;;;;;;;;;;;;;;17.96;76.44;101060.41;4184748;28;20011;-65
2023/06/16 07:32:18;;;;;;;;;;;;;;;17.95;76.43;101048.63;4186181;28;20011;-65
2023/06/16 07:34:20;;;;;;;;;;;;;;;17.96;76.75;101061.25;4185818;28;20011;-64
2023/06/16 07:36:22;;;;;;;;;;;;;;;17.94;77.48;101066.06;4186082;28;20015;-65
2023/06/16 07:38:25;;;;;;;;;;;;;;;17.94;78.16;101059.78;4186191;28;20367;-64
2023/06/16 07:40:27;;;;;;;;;;;;;;;17.93;79.13;101060.81;4185619;28;19928;-65
2023/06/16 07:42:29;;;;;;;;;;;;;;;17.93;79.31;101058.09;4184521;28;20015;-64
2023/06/16 07:44:32;;;;;;;;;;;;;;;17.93;80.04;101053.50;4185649;28;20007;-64
2023/06/16 07:46:34;;;;;;;;;;;;;;;17.93;79.98;101047.16;4185151;28;20024;-63
2023/06/16 07:48:37;;;;;;;;;;;;;;;17.93;79.61;101056.22;4184896;28;19964;-65
2023/06/16 07:50:39;;;;;;;;;;;;;;;17.91;79.75;101052.03;4183816;28;20525;-65
2023/06/16 07:52:41;;;;;;;;;;;;;;;17.92;80.09;101057.28;4185389;28;20023;-64
2023/06/16 07:54:45;;;;;;;;;;;;;;;17.93;80.08;101050.75;4185541;28;20019;-65
2023/06/16 07:56:48;;;;;;;;;;;;;;;17.95;80.54;101054.09;4185968;28;20026;-65
2023/06/16 07:58:50;;;;;;;;;;;;;;;17.96;80.53;101053.06;4186137;28;20422;-64
2023/06/16 08:00:53;;;;;;;;;;;;;;;17.97;80.45;101051.97;4186473;28;19924;-64
2023/06/16 08:02:55;;;;;;;;;;;;;;;17.99;80.36;101049.03;4184846;28;20023;-65
2023/06/16 08:04:57;;;;;;;;;;;;;;;18.00;80.03;101059.75;4185374;28;20032;-64
2023/06/16 08:07:00;;;;;;;;;;;;;;;18.01;80.10;101058.69;4186522;28;20011;-65
2023/06/16 08:09:02;;;;;;;;;;;;;;;18.00;79.95;101054.28;4185129;28;20015;-65
2023/06/16 08:11:06;;;;;;;;;;;;;;;18.00;80.07;101051.53;4185107;28;20360;-65
2023/06/16 08:13:08;;;;;;;;;;;;;;;18.04;80.07;101059.31;4185282;28;20024;-65
2023/06/16 08:15:10;;;;;;;;;;;;;;;18.06;79.81;101051.75;4184418;28;20371;-65
2023/06/16 08:17:14;;;;;;;;;;;;;;;18.07;79.95;101053.41;4185808;28;20022;-65
2023/06/16 08:19:16;;;;;;;;;;;;;;;18.09;80.00;101057.59;4184750;28;20051;-64
2023/06/16 08:21:18;;;;;;;;;;;;;;;18.12;79.94;101059.91;4185875;28;19924;-65
2023/06/16 08:23:20;;;;;;;;;;;;;;;18.15;79.87;101055.88;4185429;28;20015;-64
2023/06/16 08:25:23;;;;;;;;;;;;;;;18.17;79.66;101059.25;4185083;28;20015;-64
2023/06/16 08:27:25;;;;;;;;;;;;;;;18.18;79.26;101052.69;4185402;28;20027;-65
2023/06/16 08:29:30;;;;;;;;;;;;;;;18.21;78.71;101048.69;4185231;28;20055;-66
2023/06/16 08:31:32;;;;;;;;;;;;;;;18.22;78.54;101053.94;4185787;28;20019;-64
2023/06/16 08:33:36;;;;;;;;;;;;;;;18.25;78.32;101042.56;4185222;28;20035;-65
2023/06/16 08:35:37;;;;;;;;;;;;;;;18.28;78.70;101036.66;4184906;28;20403;-65
2023/06/16 08:37:39;;;;;;;;;;;;;;;18.34;78.33;101029.47;4185693;28;20053;-65
2023/06/16 08:39:42;;;;;;;;;;;;;;;18.37;78.35;101035.34;4185204;28;20019;-65
2023/06/16 08:41:44;;;;;;;;;;;;;;;18.42;78.62;101031.94;4185008;28;20020;-64
2023/06/16 08:43:48;;;;;;;;;;;;;;;18.49;78.33;101027.22;4184366;28;20048;-64
2023/06/16 08:45:53;;;;;;;;;;;;;;;18.56;78.18;101029.94;4184724;28;20024;-65
2023/06/16 08:47:55;;;;;;;;;;;;;;;18.64;77.94;101031.56;4184201;28;20039;-64
2023/06/16 08:49:58;;;;;;;;;;;;;;;18.69;77.01;101026.25;4184707;28;20003;-65
2023/06/16 08:52:01;;;;;;;;;;;;;;;18.72;76.09;101026.63;4185546;28;20023;-65
2023/06/16 08:54:03;;;;;;;;;;;;;;;18.75;75.23;101022.59;4184892;28;20011;-64
2023/06/16 08:56:07;;;;;;;;;;;;;;;18.79;74.14;101018.34;4185113;28;20461;-66
2023/06/16 08:58:09;;;;;;;;;;;;;;;18.83;74.28;101030.53;4185037;28;20012;-65
2023/06/16 09:00:11;;;;;;;;;;;;;;;18.89;74.33;101015.97;4185003;28;20455;-65
2023/06/16 09:02:13;;;;;;;;;;;;;;;18.97;73.57;101024.97;4185152;28;19929;-66
2023/06/16 09:04:18;;;;;;;;;;;;;;;19.00;73.12;101016.31;4218940;28;20481;-66
2023/06/16 09:06:21;;;;;;;;;;;;;;;19.04;72.96;101026.59;4187531;28;20031;-65
2023/06/16 09:08:23;;;;;;;;;;;;;;;19.04;72.78;101026.59;4188217;28;20454;-66
2023/06/16 09:10:25;;;;;;;;;;;;;;;19.04;73.30;101037.53;4187929;28;20034;-66
2023/06/16 09:12:27;;;;;;;;;;;;;;;19.02;74.99;101044.28;4188230;28;20024;-65
2023/06/16 09:14:31;;;;;;;;;;;;;;;18.94;76.25;101050.88;4187858;28;20023;-65
2023/06/16 09:16:33;;;;;;;;;;;;;;;18.83;77.37;101054.31;4188120;28;20012;-65
2023/06/16 09:18:37;;;;;;;;;;;;;;;18.73;78.53;101042.00;4188240;28;20011;-66
2023/06/16 09:20:51;;;;;;;;;;;;;;;18.67;78.75;101051.09;4187798;28;20015;-64
2023/06/16 09:23:00;;;;;;;;;;;;;;;18.62;78.83;101055.53;4188588;28;20007;-64
2023/06/16 09:25:04;;;;;;;;;;;;;;;18.56;79.17;101046.34;4187766;28;20011;-65
2023/06/16 09:27:06;;;;;;;;;;;;;;;18.49;79.80;101049.09;4187883;28;20023;-64
2023/06/16 09:29:21;;;;;;;;;;;;;;;18.45;80.23;101052.50;4187868;28;20016;-65
2023/06/16 09:31:24;;;;;;;;;;;;;;;18.37;80.23;101061.84;4187367;28;20019;-64
2023/06/16 09:33:28;;;;;;;;;;;;;;;18.32;80.13;101057.03;4188231;28;20027;-65
2023/06/16 09:35:31;;;;;;;;;;;;;;;18.30;80.46;101059.13;4187914;28;20000;-66
2023/06/16 09:37:33;;;;;;;;;;;;;;;18.29;80.51;101059.34;4187767;28;20364;-65
2023/06/16 09:39:36;;;;;;;;;;;;;;;18.29;81.41;101067.56;4187013;28;20043;-65
2023/06/16 09:41:39;;;;;;;;;;;;;;;18.28;81.20;101060.44;4187186;28;20011;-64
2023/06/16 09:43:42;;;;;;;;;;;;;;;18.26;80.84;101066.13;4187857;28;20011;-66
2023/06/16 09:45:45;;;;;;;;;;;;;;;18.26;80.34;101063.38;4188075;28;20015;-65
2023/06/16 09:47:47;;;;;;;;;;;;;;;18.26;80.13;101060.66;4188490;28;20023;-66
2023/06/16 09:49:53;;;;;;;;;;;;;;;18.26;80.20;101065.25;4186961;28;20028;-65
2023/06/16 09:51:55;;;;;;;;;;;;;;;18.24;79.92;101064.66;4187412;28;20019;-66
2023/06/16 09:53:57;;;;;;;;;;;;;;;18.24;79.62;101061.91;4187082;28;20016;-64
2023/06/16 09:56:01;;;;;;;;;;;;;;;18.23;79.56;101062.97;4187534;28;19954;-64
2023/06/16 09:58:03;;;;;;;;;;;;;;;18.19;79.82;101060.69;4187291;28;20031;-65
2023/06/16 10:00:08;;;;;;;;;;;;;;;18.19;79.98;101065.31;4187762;28;20023;-65
2023/06/16 10:02:12;;;;;;;;;;;;;;;18.21;79.92;101062.38;4187882;28;20016;-65
2023/06/16 10:04:15;;;;;;;;;;;;;;;18.21;80.06;101062.38;4187371;28;20382;-64
2023/06/16 10:06:19;;;;;;;;;;;;;;;18.21;80.15;101059.63;4187155;28;20024;-65
2023/06/16 10:08:22;;;;;;;;;;;;;;;18.21;80.46;101065.94;4187751;28;20023;-63
2023/06/16 10:10:25;;;;;;;;;;;;;;;18.21;80.86;101056.91;4186994;28;20067;-64
2023/06/16 10:12:28;;;;;;;;;;;;;;;18.24;81.08;101065.47;4186831;28;20454;-65
2023/06/16 10:14:32;;;;;;;;;;;;;;;18.30;80.96;101055.56;4186768;28;20019;-66
2023/06/16 10:16:34;;;;;;;;;;;;;;;18.37;80.31;101053.66;4187266;28;20020;-65
2023/06/16 10:18:36;;;;;;;;;;;;;;;18.45;79.98;101049.78;4185864;28;19960;-65
2023/06/16 10:20:38;;;;;;;;;;;;;;;18.50;79.45;101052.72;4185459;28;20016;-64
2023/06/16 10:22:40;;;;;;;;;;;;;;;18.52;79.17;101056.03;4187482;28;20051;-65
2023/06/16 10:24:42;;;;;;;;;;;;;;;18.54;78.58;101045.72;4186562;28;19968;-65
2023/06/16 10:26:45;;;;;;;;;;;;;;;18.59;77.71;101047.78;4187028;28;20002;-64
2023/06/16 10:28:48;;;;;;;;;;;;;;;18.62;76.91;101048.19;4186459;28;20030;-65
2023/06/16 10:30:50;;;;;;;;;;;;;;;18.67;76.21;101042.88;4187757;28;20024;-65
2023/06/16 10:32:53;;;;;;;;;;;;;;;18.72;75.99;101053.16;4187160;28;20016;-65